Terminal Aerodrome Forecast
Issued by NWS

Home | Current Version | Previous Version | Graphics & Text | Print | Product List | Glossary On
Versions: 1 2 3 4 5 6 7 8 9 10 11 12 13 14 15 16 17 18 19 20 21 22
000
FTUS42 KMHX 171142
TAFPGV
TAF
KPGV 171142Z 1712/1812 02006KT P6SM BKN008
     FM171500 02008KT P6SM VCSH BKN025
     FM171900 04009KT P6SM VCSH BKN040
     FM172100 04008KT P6SM BKN050
     FM180500 03006KT P6SM OVC004
      AMD LTD TO CLD VIS AND WIND=

USA.gov is the U.S. government's official web portal to all federal, state and local government web resources and services.